Yhteysvirhe. Siirry suoraan Meteoalarm sivuille : www.meteoalarm.eu ja tarkasta säävaroitukset sivustolta.


Webkamera Lisätietoa Webcam


Yksityisiä sääasemia lähellä:

Sääasema Juupajoki

Sääasema Orivesi

Sääasema Muurame

Sääasema Jyväskylä

Sääasema Vihtavuori


Löydät sääaseman tiedot myös:

Finland Weather Exchange

European Weather Network

Weather Underground

AWEKAS

Windy.com



Säätiedot lähimmiltä METAR asemilta

   
EFHA - Halli (Fin-Afb), Finland
Etäisyys asemalta: Kaakko 25 km
Päivitetty: 03.03.2021 03:50
Selkeää  
Selkeää  
   Tuuli: Länsi 4.1 m/s
Tuuli: Länsi 4.1 m/s
Lämpötila: -4°C
Tuulen hyytävyys: -9°C
Kastepiste: -5°C
Kosteus: 93%
Ilmanpaine: 1017 hPa
Näkyvyys: Enemmän kuin 10 km
Pilvitiedot: Selkeää
EFHA 030150Z AUTO 27008KT CAVOK M04/M05 Q1017
EFJY - Jyvaskyla (Mil/Civ), Finland
Etäisyys asemalta: Koillinen 75 km
Päivitetty: 03.03.2021 03:50
Selkeää  
Selkeää  
   Tuuli: Länsi 4.6 m/s
Tuuli: Länsi 4.6 m/s
Lämpötila: -1°C
Tuulen hyytävyys: -6°C
Kastepiste: -4°C
Kosteus: 80%
Ilmanpaine: 1015 hPa
Näkyvyys: Enemmän kuin 10 km
Pilvitiedot: Selkeää
EFJY 030150Z AUTO 28009KT CAVOK M01/M04 Q1015
EFTP - Tampere/Pirkkala, Finland
Etäisyys asemalta: Lounas 81 km
Päivitetty: 03.03.2021 03:50
Selkeää  
Selkeää  
   Tuuli: Länsi 3.6 m/s
Tuuli: Länsi 3.6 m/s
Lämpötila: -1°C
Tuulen hyytävyys: -5°C
Kastepiste: -3°C
Kosteus: 86%
Ilmanpaine: 1019 hPa
Näkyvyys: Enemmän kuin 10 km
Pilvitiedot: Selkeää
EFTP 030150Z AUTO 27007KT CAVOK M01/M03 Q1019
EFSI - Seinajoki-Ilmajoki, Finland
Etäisyys asemalta: Luode 114 km
Päivitetty: 03.03.2021 03:50
Selkeää  
Selkeää  
   Tuuli: Lounas 1.5 m/s
Tuuli: Lounas 1.5 m/s
Lämpötila: -1°C
Tuulen hyytävyys: -3°C
Kastepiste: -3°C
Kosteus: 86%
Ilmanpaine: 1017 hPa
Näkyvyys: Enemmän kuin 10 km
Pilvitiedot: Selkeää
EFSI 030150Z AUTO 22003KT CAVOK M01/M03 Q1017
EFMI - Mikkeli, Finland
Etäisyys asemalta: Itäkaakko 147 km
Päivitetty: 03.03.2021 03:50
Selkeää  
Selkeää  
   Tuuli: Länsi 4.6 m/s
Tuuli: Länsi 4.6 m/s
Lämpötila: -2°C
Tuulen hyytävyys: -7°C
Kastepiste: -5°C
Kosteus: 80%
Ilmanpaine: 1016 hPa
Näkyvyys: Enemmän kuin 10 km
Pilvitiedot: Selkeää
EFMI 030150Z AUTO 26009KT CAVOK M02/M05 Q1016
EFPO - Pori (Mil/Civ), Finland
Etäisyys asemalta: Länsilounas 154 km
Päivitetty: 03.03.2021 03:50
Selkeää  
Selkeää  
   Tuuli: Länsiluode 4.1 m/s
Tuuli: Länsiluode 4.1 m/s
Lämpötila: 1°C
Tuulen hyytävyys: -3°C
Kastepiste: -1°C
Kosteus: 87%
Ilmanpaine: 1020 hPa
Näkyvyys: Enemmän kuin 10 km
Pilvitiedot: Selkeää
EFPO 030150Z AUTO 30008KT CAVOK 01/M01 Q1020
EFUT - Utti (Fin-Afb), Finland
Etäisyys asemalta: Kaakko 180 km
Päivitetty: 03.03.2021 03:50
Selkeää  
Selkeää  
   Tuuli: Länsiluode 2.6 m/s
Tuuli: Länsiluode 2.6 m/s
Lämpötila: -1°C
Tuulen hyytävyys: -4°C
Kastepiste: -4°C
Kosteus: 80%
Ilmanpaine: 1017 hPa
Näkyvyys: Enemmän kuin 10 km
Pilvitiedot: Selkeää
EFUT 030150Z AUTO 29005KT 270V330 CAVOK M01/M04 Q1017
EFVA - Vaasa, Finland
Etäisyys asemalta: Luode 180 km
Päivitetty: 03.03.2021 03:50
Selkeää  
Selkeää  
   Tuuli: Länsiluode 4.1 m/s
Tuuli: Länsiluode 4.1 m/s
Lämpötila: 1°C
Tuulen hyytävyys: -3°C
Kastepiste: -2°C
Kosteus: 81%
Ilmanpaine: 1017 hPa
Näkyvyys: Enemmän kuin 10 km
Pilvitiedot: Selkeää
EFVA 030150Z AUTO 29008KT 270V330 CAVOK 01/M02 Q1017
EFHK - Helsinki/Vantaa, Finland
Etäisyys asemalta: Etelä 191 km
Päivitetty: 03.03.2021 03:50
Selkeää  
Selkeää  
   Tuuli: Länsi 4.6 m/s
Tuuli: Länsi 4.6 m/s
Lämpötila: -1°C
Tuulen hyytävyys: -6°C
Kastepiste: -3°C
Kosteus: 86%
Ilmanpaine: 1020 hPa
Näkyvyys: Enemmän kuin 10 km
Pilvitiedot: Selkeää
EFHK 030150Z 26009KT CAVOK M01/M03 Q1020 NOSIG

Alkuperäinen skripti  Saratoga-weather.org Sovitettu myös templatelle  Weerstation Leuven

Laitteet joita käytämme:

Sääasema
Davis VP2

Sääasemaohjelma
Cumulus

Sääaseman palvelin
HP ProBook 6460b

Palveluntarjoaja
Radicenter

Davis VP2

Cumulus

HP ProBook 6460b

Radicenter




Flag Counter Cumulus Top Weather Sites